Time;durP1;ratioP1;P1;durP2;ratioP2;P2;SDS_P1;SDS_P2;PMS_P1;PMS_P2;Temp;Humidity;BMP_temperature;BMP_pressure;BME280_temperature;BME280_humidity;BME280_pressure;Samples;Min_cycle;Max_cycle;Signal;HPM_P1;HPM_P2
2022/05/22 00:02:05;;;;;;;15.10;4.30;;;11.50;99.90;;;;;;4996291;28;20195;-81
2022/05/22 00:04:32;;;;;;;8.50;4.07;;;11.40;99.90;;;;;;4995657;28;20181;-81
2022/05/22 00:06:57;;;;;;;12.30;4.20;;;11.40;99.90;;;;;;4996251;28;20177;-81
2022/05/22 00:09:24;;;;;;;8.93;4.00;;;11.40;99.90;;;;;;4996328;28;20172;-81
2022/05/22 00:11:49;;;;;;;10.50;4.47;;;11.30;99.90;;;;;;4995939;28;20252;-81
2022/05/22 00:14:16;;;;;;;8.87;4.50;;;11.20;99.90;;;;;;4996130;28;20176;-81
2022/05/22 00:16:46;;;;;;;9.20;4.83;;;11.00;99.90;;;;;;4996129;28;20181;-81
2022/05/22 00:19:32;;;;;;;9.03;4.13;;;11.20;99.90;;;;;;4994853;28;20196;-81
2022/05/22 00:21:58;;;;;;;9.03;4.53;;;11.30;99.90;;;;;;4995584;28;20249;-80
2022/05/22 00:24:26;;;;;;;13.07;4.63;;;11.20;99.90;;;;;;4995813;28;20220;-81
2022/05/22 00:26:52;;;;;;;11.53;4.63;;;11.20;99.90;;;;;;4995747;28;20180;-81
2022/05/22 00:29:18;;;;;;;11.43;5.00;;;11.30;99.90;;;;;;4995890;28;20662;-81
2022/05/22 00:31:45;;;;;;;12.90;4.90;;;11.20;99.90;;;;;;4995670;28;20610;-81
2022/05/22 00:34:11;;;;;;;13.77;5.03;;;11.10;99.90;;;;;;4995707;28;20182;-81
2022/05/22 00:36:37;;;;;;;13.00;4.83;;;11.20;99.90;;;;;;4995791;28;20175;-82
2022/05/22 00:39:03;;;;;;;12.40;4.97;;;11.10;99.90;;;;;;4995745;28;20668;-81
2022/05/22 00:41:30;;;;;;;13.10;4.80;;;11.00;99.90;;;;;;4995432;28;20227;-81
2022/05/22 00:43:57;;;;;;;9.80;5.73;;;11.00;99.90;;;;;;4995373;28;20211;-81
2022/05/22 00:46:24;;;;;;;9.77;5.23;;;11.00;99.90;;;;;;4995536;28;20186;-81
2022/05/22 00:48:55;;;;;;;12.67;5.77;;;11.00;99.90;;;;;;4995262;28;20637;-81
2022/05/22 00:51:43;;;;;;;17.00;5.50;;;10.90;99.90;;;;;;4995246;28;20192;-81
2022/05/22 00:54:21;;;;;;;8.13;5.13;;;10.90;99.90;;;;;;4995091;28;20194;-81
2022/05/22 00:57:09;;;;;;;10.93;5.40;;;10.80;99.90;;;;;;4995092;28;20176;-81
2022/05/22 00:59:40;;;;;;;12.23;5.27;;;10.80;99.90;;;;;;4995359;28;20179;-80
2022/05/22 01:02:06;;;;;;;18.43;6.00;;;10.90;99.90;;;;;;4995038;28;20559;-81
2022/05/22 01:04:34;;;;;;;16.83;6.10;;;10.80;99.90;;;;;;4994996;28;20181;-81
2022/05/22 01:07:04;;;;;;;14.90;6.87;;;10.70;99.90;;;;;;4994759;28;20181;-81
2022/05/22 01:09:29;;;;;;;10.87;6.63;;;10.60;99.90;;;;;;4994921;28;20179;-80
2022/05/22 01:12:02;;;;;;;16.90;6.90;;;10.70;99.90;;;;;;4994870;28;20198;-80
2022/05/22 01:14:28;;;;;;;16.20;6.87;;;10.70;99.90;;;;;;4994867;28;20182;-80
2022/05/22 01:16:54;;;;;;;15.37;6.53;;;10.80;99.90;;;;;;4995051;28;20867;-80
2022/05/22 01:19:21;;;;;;;14.00;6.90;;;10.90;99.90;;;;;;4994502;28;20259;-80
2022/05/22 01:21:57;;;;;;;14.20;6.03;;;10.70;99.90;;;;;;4995073;28;20195;-80
2022/05/22 01:24:22;;;;;;;10.87;5.93;;;10.70;99.90;;;;;;4994825;28;20198;-80
2022/05/22 01:26:49;;;;;;;11.43;6.50;;;10.80;99.90;;;;;;4994775;28;20178;-81
2022/05/22 01:29:17;;;;;;;10.47;5.73;;;10.70;99.90;;;;;;4994907;28;20523;-80
2022/05/22 01:31:42;;;;;;;10.50;5.57;;;10.80;99.90;;;;;;4998163;28;20223;-81
2022/05/22 01:34:08;;;;;;;8.77;5.73;;;10.80;99.90;;;;;;4998591;28;20204;-80
2022/05/22 01:36:34;;;;;;;12.70;6.13;;;10.80;99.90;;;;;;5000178;28;20183;-80
2022/05/22 01:38:59;;;;;;;12.03;6.07;;;10.80;99.90;;;;;;4999881;28;20172;-81
2022/05/22 01:41:25;;;;;;;13.50;6.40;;;10.60;99.90;;;;;;4999595;28;20194;-80
2022/05/22 01:43:50;;;;;;;13.13;6.90;;;10.50;99.90;;;;;;4999934;28;20262;-81
2022/05/22 01:46:16;;;;;;;13.07;6.73;;;10.40;99.90;;;;;;5000267;28;20184;-81
2022/05/22 01:48:41;;;;;;;13.10;5.90;;;10.30;99.90;;;;;;5000108;28;20270;-81
2022/05/22 01:51:09;;;;;;;11.73;7.63;;;10.60;99.90;;;;;;5018093;28;20532;-80
2022/05/22 01:53:34;;;;;;;16.90;7.50;;;10.70;99.90;;;;;;4999665;28;20215;-80
2022/05/22 01:56:00;;;;;;;13.37;7.33;;;10.60;99.90;;;;;;4999684;28;20183;-81
2022/05/22 01:58:26;;;;;;;13.87;7.10;;;10.50;99.90;;;;;;4999222;28;20240;-80
2022/05/22 02:00:51;;;;;;;13.43;7.30;;;10.30;99.90;;;;;;4999753;28;20261;-80
2022/05/22 02:03:17;;;;;;;12.73;7.73;;;10.20;99.90;;;;;;4999370;28;20686;-80
2022/05/22 02:05:43;;;;;;;16.70;7.13;;;10.20;99.90;;;;;;4999455;28;20266;-80
2022/05/22 02:08:19;;;;;;;14.77;7.10;;;10.30;99.90;;;;;;4999570;28;20277;-81
2022/05/22 02:10:51;;;;;;;15.70;7.10;;;10.20;99.90;;;;;;5017672;28;20195;-80
2022/05/22 02:13:24;;;;;;;11.13;7.50;;;10.20;99.90;;;;;;4999767;28;20175;-80
2022/05/22 02:15:50;;;;;;;16.63;7.50;;;10.20;99.90;;;;;;4999321;28;20631;-80
2022/05/22 02:18:16;;;;;;;13.83;7.53;;;10.10;99.90;;;;;;4999349;28;20654;-80
2022/05/22 02:20:43;;;;;;;15.33;8.10;;;10.00;99.90;;;;;;5000063;28;20202;-80
2022/05/22 02:23:09;;;;;;;18.97;8.30;;;10.00;99.90;;;;;;4999365;28;20237;-81
2022/05/22 02:25:38;;;;;;;16.03;7.97;;;9.90;99.90;;;;;;4999322;28;20178;-80
2022/05/22 02:28:06;;;;;;;17.40;7.97;;;10.00;99.90;;;;;;4999068;28;20179;-80
2022/05/22 02:30:37;;;;;;;12.83;7.70;;;9.90;99.90;;;;;;4998947;28;20217;-81
2022/05/22 02:33:04;;;;;;;16.47;8.47;;;10.00;99.90;;;;;;4998824;28;20181;-80
2022/05/22 02:35:30;;;;;;;13.63;7.80;;;10.00;99.90;;;;;;4998414;28;20209;-80
2022/05/22 02:37:58;;;;;;;15.47;7.60;;;9.90;99.90;;;;;;4998932;28;20189;-81
2022/05/22 02:40:26;;;;;;;13.47;7.50;;;10.00;99.90;;;;;;4998688;28;20229;-82
2022/05/22 02:42:53;;;;;;;13.77;7.37;;;10.00;99.90;;;;;;4997526;28;20224;-81
2022/05/22 02:45:22;;;;;;;10.67;7.07;;;10.00;99.90;;;;;;4999030;28;20186;-80
2022/05/22 02:47:49;;;;;;;15.60;7.80;;;10.00;99.90;;;;;;4998598;28;20623;-80
2022/05/22 02:50:17;;;;;;;13.77;7.50;;;9.90;99.90;;;;;;4998552;28;20198;-81
2022/05/22 02:52:43;;;;;;;13.40;6.77;;;9.80;99.90;;;;;;4998664;28;20202;-80
2022/05/22 02:55:09;;;;;;;16.13;7.30;;;9.80;99.90;;;;;;4998748;28;20192;-81
2022/05/22 02:57:37;;;;;;;13.87;7.40;;;9.80;99.90;;;;;;5002338;28;20282;-80
2022/05/22 03:00:06;;;;;;;16.47;7.50;;;9.80;99.90;;;;;;5003144;28;20588;-80
2022/05/22 03:02:32;;;;;;;13.03;7.33;;;9.90;99.90;;;;;;5001915;28;20200;-81
2022/05/22 03:04:58;;;;;;;17.27;6.97;;;9.90;99.90;;;;;;4999682;28;20701;-82
2022/05/22 03:07:24;;;;;;;15.17;7.20;;;9.90;99.90;;;;;;4999744;28;20174;-81
2022/05/22 03:09:49;;;;;;;10.57;6.57;;;9.80;99.90;;;;;;4999627;28;20175;-81
2022/05/22 03:12:18;;;;;;;12.67;6.73;;;9.70;99.90;;;;;;4999660;28;20193;-81
2022/05/22 03:14:50;;;;;;;12.03;6.57;;;9.80;99.90;;;;;;4999260;28;20208;-81
2022/05/22 03:17:15;;;;;;;19.97;6.63;;;9.80;99.90;;;;;;4999544;28;20228;-81
2022/05/22 03:19:41;;;;;;;14.17;6.67;;;9.70;99.90;;;;;;4998526;28;20246;-80
2022/05/22 03:22:08;;;;;;;10.77;6.33;;;9.60;99.90;;;;;;4999550;28;20561;-82
2022/05/22 03:24:34;;;;;;;12.17;6.63;;;9.50;99.90;;;;;;4998796;28;20186;-81
2022/05/22 03:27:06;;;;;;;12.23;6.50;;;9.60;99.90;;;;;;4998816;28;20171;-81
2022/05/22 03:29:32;;;;;;;9.30;5.77;;;9.70;99.90;;;;;;4999182;28;20171;-81
2022/05/22 03:31:58;;;;;;;11.43;6.00;;;9.50;99.90;;;;;;4999252;28;20233;-81
2022/05/22 03:34:24;;;;;;;7.33;5.53;;;9.40;99.90;;;;;;4999005;28;20235;-80
2022/05/22 03:36:51;;;;;;;9.70;5.47;;;9.60;99.90;;;;;;4999148;28;20174;-81
2022/05/22 03:39:17;;;;;;;13.67;5.63;;;9.50;99.90;;;;;;4998666;28;20201;-83
2022/05/22 03:41:42;;;;;;;13.00;6.33;;;9.50;99.90;;;;;;4998400;28;20197;-82
2022/05/22 03:44:08;;;;;;;11.50;6.87;;;9.40;99.90;;;;;;4998753;28;20202;-83
2022/05/22 03:46:34;;;;;;;12.37;6.80;;;9.40;99.90;;;;;;4998745;28;20167;-82
2022/05/22 03:49:00;;;;;;;16.27;7.00;;;9.50;99.90;;;;;;5000384;28;20182;-81
2022/05/22 03:51:26;;;;;;;12.07;5.93;;;9.50;99.90;;;;;;5000589;28;20191;-81
2022/05/22 03:53:53;;;;;;;17.60;6.77;;;9.40;99.90;;;;;;5000493;28;20203;-81
2022/05/22 03:56:19;;;;;;;10.03;6.43;;;9.40;99.90;;;;;;5000926;28;20183;-82
2022/05/22 03:58:46;;;;;;;11.80;6.50;;;9.40;99.90;;;;;;5001255;28;20206;-82
2022/05/22 04:01:11;;;;;;;11.43;6.30;;;9.50;99.90;;;;;;4998227;28;20198;-82
2022/05/22 04:03:38;;;;;;;13.13;6.53;;;9.40;99.90;;;;;;4998640;28;20256;-81
2022/05/22 04:06:07;;;;;;;9.97;5.90;;;9.50;99.90;;;;;;4998742;28;20626;-82
2022/05/22 04:08:33;;;;;;;9.27;6.27;;;9.50;99.90;;;;;;4998086;28;20202;-81
2022/05/22 04:11:25;;;;;;;11.57;6.57;;;9.60;99.90;;;;;;4998243;28;20650;-81
2022/05/22 04:13:51;;;;;;;12.23;5.93;;;9.60;99.90;;;;;;4997534;28;20186;-81
2022/05/22 04:16:16;;;;;;;10.63;6.00;;;9.60;99.90;;;;;;4998152;28;20317;-83
2022/05/22 04:18:42;;;;;;;8.67;5.97;;;9.60;99.90;;;;;;4997588;28;20183;-82
2022/05/22 04:21:09;;;;;;;12.27;6.10;;;9.70;99.90;;;;;;4997262;28;20688;-82
2022/05/22 04:26:19;;;;;;;11.53;6.33;;;9.80;99.90;;;;;;5016075;28;20205;-81
2022/05/22 04:28:45;;;;;;;16.87;6.50;;;9.90;99.90;;;;;;4998226;28;20179;-83
2022/05/22 04:31:11;;;;;;;13.90;6.00;;;10.00;99.90;;;;;;4997652;28;20208;-82
2022/05/22 04:33:36;;;;;;;12.80;6.03;;;10.20;99.90;;;;;;4997598;28;20181;-83
2022/05/22 04:36:04;;;;;;;13.07;5.67;;;10.40;99.90;;;;;;4996880;28;20230;-81
2022/05/22 04:38:30;;;;;;;7.93;5.40;;;10.60;99.90;;;;;;5014626;28;20186;-81
2022/05/22 04:40:56;;;;;;;7.63;4.90;;;10.80;99.90;;;;;;4997302;28;20206;-80
2022/05/22 04:43:23;;;;;;;9.27;4.87;;;11.00;99.90;;;;;;4997265;28;20203;-81
2022/05/22 04:45:50;;;;;;;7.67;4.23;;;11.30;99.90;;;;;;5014571;28;20517;-80
2022/05/22 04:48:17;;;;;;;5.10;3.93;;;11.40;99.90;;;;;;4996995;28;20697;-79
2022/05/22 04:50:45;;;;;;;10.07;4.27;;;11.50;99.90;;;;;;4996706;28;20252;-79
2022/05/22 04:53:11;;;;;;;8.03;4.17;;;11.50;99.90;;;;;;4996378;28;20280;-82
2022/05/22 04:55:37;;;;;;;9.90;4.10;;;11.50;99.90;;;;;;4996913;28;20220;-83
2022/05/22 04:58:02;;;;;;;7.40;4.50;;;11.70;99.90;;;;;;4996478;28;20177;-82
2022/05/22 05:00:28;;;;;;;8.13;4.90;;;11.40;99.90;;;;;;4996722;28;20211;-81
2022/05/22 05:02:54;;;;;;;15.43;5.00;;;11.50;99.90;;;;;;4996430;28;20198;-81
2022/05/22 05:05:19;;;;;;;8.97;5.07;;;11.80;99.90;;;;;;4995997;28;20642;-81
2022/05/22 05:07:45;;;;;;;8.40;4.47;;;11.90;99.90;;;;;;4996503;28;20205;-82
2022/05/22 05:10:12;;;;;;;7.77;4.50;;;11.90;99.90;;;;;;4996560;28;20225;-82
2022/05/22 05:12:39;;;;;;;8.17;3.97;;;12.30;99.90;;;;;;4996383;28;20171;-80
2022/05/22 05:15:08;;;;;;;10.23;3.63;;;12.30;99.90;;;;;;5014093;28;20174;-80
2022/05/22 05:17:33;;;;;;;7.20;3.93;;;12.50;99.90;;;;;;5014912;28;20175;-80
2022/05/22 05:20:00;;;;;;;6.87;4.10;;;12.60;99.90;;;;;;4996249;28;20549;-80
2022/05/22 05:22:26;;;;;;;9.77;4.63;;;12.50;99.90;;;;;;4996544;28;20201;-80
2022/05/22 05:24:51;;;;;;;7.87;4.50;;;12.80;99.90;;;;;;4996895;28;20636;-80
2022/05/22 05:27:17;;;;;;;7.90;4.77;;;12.80;99.90;;;;;;4996792;28;20171;-80
2022/05/22 05:29:42;;;;;;;8.17;4.53;;;12.80;99.90;;;;;;4996731;28;20174;-81
2022/05/22 05:32:08;;;;;;;9.37;4.50;;;12.80;99.90;;;;;;4996344;28;20198;-80
2022/05/22 05:34:34;;;;;;;10.80;4.77;;;12.90;99.90;;;;;;4997169;28;20174;-82
2022/05/22 05:37:00;;;;;;;9.57;4.67;;;13.00;99.90;;;;;;4997599;28;20270;-82
2022/05/22 05:39:27;;;;;;;14.13;5.40;;;13.20;99.90;;;;;;4997044;28;20175;-82
2022/05/22 05:41:56;;;;;;;9.87;4.67;;;13.50;99.90;;;;;;4996837;28;20205;-82
2022/05/22 05:44:22;;;;;;;6.90;3.23;;;13.70;99.90;;;;;;4996840;28;20206;-82
2022/05/22 05:46:48;;;;;;;10.07;4.40;;;13.70;99.90;;;;;;4996353;28;20656;-79
2022/05/22 05:49:14;;;;;;;10.03;3.60;;;14.20;99.90;;;;;;4995739;28;20182;-82
2022/05/22 05:51:40;;;;;;;8.43;3.47;;;14.40;99.90;;;;;;4995925;28;20565;-81
2022/05/22 05:54:06;;;;;;;7.77;3.37;;;14.50;99.90;;;;;;4995559;28;20194;-81
2022/05/22 05:56:31;;;;;;;14.40;3.37;;;15.00;99.90;;;;;;4996004;28;20167;-82
2022/05/22 05:58:57;;;;;;;9.73;2.95;;;15.40;99.90;;;;;;5013513;28;20174;-81
2022/05/22 06:01:24;;;;;;;8.63;2.90;;;15.40;99.90;;;;;;4995841;28;20214;-83
2022/05/22 06:03:51;;;;;;;6.38;2.75;;;15.50;99.90;;;;;;4995121;28;20201;-83
2022/05/22 06:06:17;;;;;;;7.78;2.53;;;15.70;99.90;;;;;;5012781;28;20574;-82
2022/05/22 06:08:44;;;;;;;11.43;2.67;;;16.60;99.90;;;;;;4996006;28;20171;-81
2022/05/22 06:11:10;;;;;;;8.50;2.45;;;16.50;99.90;;;;;;4995718;28;20236;-80
2022/05/22 06:13:36;;;;;;;6.43;2.58;;;16.10;99.90;;;;;;4996353;28;20179;-78
2022/05/22 06:16:05;;;;;;;9.43;2.33;;;16.60;99.90;;;;;;4996971;28;20178;-79
2022/05/22 06:18:32;;;;;;;12.25;2.70;;;16.30;99.90;;;;;;4999637;28;20197;-79
2022/05/22 06:20:57;;;;;;;7.10;2.33;;;17.20;99.90;;;;;;4999464;28;20202;-80
2022/05/22 06:23:23;;;;;;;10.77;2.70;;;17.10;99.90;;;;;;4999521;28;20252;-82
2022/05/22 06:25:48;;;;;;;8.80;2.30;;;17.00;99.90;;;;;;4999753;28;20170;-82
2022/05/22 06:28:15;;;;;;;7.30;2.28;;;17.20;99.90;;;;;;4999728;28;20171;-81
2022/05/22 06:30:42;;;;;;;8.60;2.35;;;17.30;99.90;;;;;;4999624;28;20722;-83
2022/05/22 06:33:14;;;;;;;7.25;2.30;;;17.50;99.90;;;;;;4999638;28;20178;-82
2022/05/22 06:35:42;;;;;;;5.88;2.03;;;17.30;99.90;;;;;;5000150;28;20706;-83
2022/05/22 06:39:49;;;;;;;6.85;1.90;;;17.10;99.90;;;;;;4999726;28;20291;-80
2022/05/22 06:40:55;;;;;;;9.35;2.08;;;17.70;99.90;;;;;;5017327;28;20218;-82
2022/05/22 06:43:20;;;;;;;5.85;2.25;;;18.80;99.90;;;;;;5017346;28;20199;-81
2022/05/22 06:45:50;;;;;;;7.10;2.08;;;18.00;99.90;;;;;;5000353;28;20633;-81
2022/05/22 06:48:17;;;;;;;5.07;2.25;;;18.20;99.90;;;;;;5000016;28;20225;-80
2022/05/22 06:50:43;;;;;;;6.30;2.13;;;17.30;99.90;;;;;;4999108;28;20198;-81
2022/05/22 06:53:08;;;;;;;7.53;2.58;;;18.70;99.90;;;;;;4999418;28;20503;-80
2022/05/22 06:55:34;;;;;;;9.30;2.00;;;18.50;99.90;;;;;;4999023;28;20647;-79
2022/05/22 06:58:00;;;;;;;5.90;1.95;;;18.70;99.90;;;;;;4999620;28;20547;-80
2022/05/22 07:00:27;;;;;;;7.28;2.10;;;18.80;99.90;;;;;;4999294;28;20686;-79
2022/05/22 07:02:54;;;;;;;4.53;2.15;;;18.50;99.90;;;;;;4999002;28;20649;-81
2022/05/22 07:05:20;;;;;;;7.95;1.92;;;19.40;99.90;;;;;;4999259;28;20540;-80
2022/05/22 07:07:47;;;;;;;4.88;1.70;;;19.40;99.90;;;;;;4999367;28;20170;-80
2022/05/22 07:10:13;;;;;;;5.43;1.67;;;19.50;99.90;;;;;;4998233;28;20198;-77
2022/05/22 07:12:39;;;;;;;5.85;1.75;;;19.80;99.50;;;;;;4997274;28;20549;-78
2022/05/22 07:15:06;;;;;;;5.97;1.80;;;19.90;98.80;;;;;;4996915;28;20185;-77
2022/05/22 07:17:32;;;;;;;6.07;2.00;;;19.60;99.70;;;;;;4996525;28;20647;-76
2022/05/22 07:19:58;;;;;;;7.82;2.28;;;19.00;98.50;;;;;;4997028;28;20178;-78
2022/05/22 07:22:24;;;;;;;6.90;1.88;;;19.00;99.50;;;;;;4996986;28;20194;-79
2022/05/22 07:24:51;;;;;;;10.35;1.85;;;19.90;99.20;;;;;;4997487;28;20271;-79
2022/05/22 07:27:17;;;;;;;6.07;1.60;;;19.80;96.60;;;;;;4997183;28;20174;-78
2022/05/22 07:29:43;;;;;;;7.28;2.38;;;20.10;97.60;;;;;;4996873;28;20182;-78
2022/05/22 07:32:09;;;;;;;3.35;1.50;;;19.70;96.80;;;;;;4998400;28;20187;-82
2022/05/22 07:34:35;;;;;;;6.68;1.92;;;20.60;95.50;;;;;;4983745;28;20549;-80
2022/05/22 07:37:04;;;;;;;5.28;1.60;;;19.70;95.70;;;;;;4989345;28;20651;-81
2022/05/22 07:39:30;;;;;;;6.82;1.80;;;19.70;97.50;;;;;;4996787;28;20178;-81
2022/05/22 07:41:56;;;;;;;6.00;2.05;;;18.80;96.50;;;;;;4980278;28;20199;-82
2022/05/22 07:44:22;;;;;;;6.93;1.80;;;19.30;97.10;;;;;;4979639;28;20703;-80
2022/05/22 07:46:48;;;;;;;5.13;1.55;;;18.90;97.10;;;;;;4997180;28;20544;-80
2022/05/22 07:52:10;;;;;;;8.23;1.85;;;20.80;96.30;;;;;;5015312;28;20200;-80
2022/05/22 07:54:39;;;;;;;9.00;1.90;;;19.90;95.40;;;;;;4982997;28;20186;-81
2022/05/22 07:57:07;;;;;;;4.47;1.60;;;20.70;96.90;;;;;;4983965;28;20187;-81
2022/05/22 07:59:37;;;;;;;6.43;1.70;;;21.00;94.40;;;;;;4985711;28;20226;-80
2022/05/22 08:02:04;;;;;;;4.25;1.50;;;21.00;94.40;;;;;;4978305;28;20203;-81
2022/05/22 08:04:30;;;;;;;9.65;1.92;;;20.20;93.90;;;;;;4979347;28;20206;-82
2022/05/22 08:06:56;;;;;;;7.65;1.88;;;20.80;95.70;;;;;;4978781;28;20226;-83
2022/05/22 08:09:22;;;;;;;7.35;1.65;;;21.00;94.70;;;;;;4978333;28;20179;-82
2022/05/22 08:11:48;;;;;;;5.90;1.65;;;20.80;95.30;;;;;;4978441;28;20195;-81
2022/05/22 08:14:15;;;;;;;6.43;1.73;;;21.70;94.60;;;;;;4984640;28;20656;-80
2022/05/22 08:16:44;;;;;;;8.02;2.00;;;20.50;95.20;;;;;;4996520;28;20182;-84
2022/05/22 08:19:10;;;;;;;4.93;1.30;;;20.10;93.90;;;;;;4995849;28;20544;-82
2022/05/22 08:21:37;;;;;;;7.72;1.80;;;20.70;92.50;;;;;;4996677;28;20194;-82
2022/05/22 08:24:03;;;;;;;5.80;1.75;;;20.90;92.30;;;;;;4995313;28;20224;-83
2022/05/22 08:26:29;;;;;;;3.30;1.30;;;21.00;92.10;;;;;;4995584;28;20171;-83
2022/05/22 08:28:55;;;;;;;7.32;1.70;;;21.30;91.00;;;;;;4996500;28;20266;-83
2022/05/22 08:31:20;;;;;;;7.95;1.70;;;20.90;91.60;;;;;;4995568;28;20203;-81
2022/05/22 08:33:46;;;;;;;5.53;1.65;;;21.00;92.60;;;;;;4994694;28;20175;-83
2022/05/22 08:36:12;;;;;;;4.13;1.60;;;22.20;90.60;;;;;;4977381;28;20343;-85
2022/05/22 08:38:38;;;;;;;3.67;1.50;;;22.10;88.90;;;;;;4977654;28;20175;-83
2022/05/22 08:41:08;;;;;;;5.38;1.83;;;21.90;90.10;;;;;;4976309;28;20226;-82
2022/05/22 08:43:36;;;;;;;5.65;1.67;;;21.00;90.70;;;;;;4990548;28;20233;-83
2022/05/22 08:46:13;;;;;;;9.77;1.65;;;21.90;88.60;;;;;;4996709;28;20171;-82
2022/05/22 08:48:51;;;;;;;6.30;1.40;;;21.90;87.80;;;;;;4991368;28;20179;-82
2022/05/22 08:51:22;;;;;;;8.40;2.15;;;22.00;90.50;;;;;;4977718;28;20195;-82
2022/05/22 08:53:55;;;;;;;7.30;1.65;;;21.60;89.30;;;;;;4997203;28;20213;-83
2022/05/22 08:59:20;;;;;;;3.95;1.60;;;22.40;89.00;;;;;;5015048;28;20186;-82
2022/05/22 09:01:52;;;;;;;2.22;1.30;;;22.80;89.90;;;;;;5012258;28;20239;-82
2022/05/22 09:04:33;;;;;;;7.10;1.83;;;23.00;87.30;;;;;;5015408;28;20198;-81
2022/05/22 09:07:17;;;;;;;6.00;1.70;;;21.60;86.90;;;;;;4996046;28;20269;-82
2022/05/22 09:09:46;;;;;;;4.15;1.60;;;21.30;89.20;;;;;;4977909;28;20171;-83
2022/05/22 09:12:31;;;;;;;7.25;1.75;;;21.90;88.80;;;;;;4977138;28;20278;-83
2022/05/22 09:15:02;;;;;;;8.27;1.92;;;22.10;88.40;;;;;;4976596;28;20175;-80
2022/05/22 09:17:34;;;;;;;5.45;1.95;;;21.50;87.20;;;;;;4976510;28;20190;-82
2022/05/22 09:20:22;;;;;;;7.72;1.92;;;20.80;89.20;;;;;;4976004;28;20179;-84
2022/05/22 09:22:50;;;;;;;4.78;1.50;;;20.60;90.60;;;;;;4975658;28;20286;-83
2022/05/22 09:25:35;;;;;;;9.20;2.55;;;21.20;90.30;;;;;;4990932;28;20179;-82
2022/05/22 09:28:20;;;;;;;6.15;2.40;;;21.10;91.40;;;;;;4994395;28;20179;-83
2022/05/22 09:31:05;;;;;;;6.88;1.70;;;22.00;89.10;;;;;;4995033;28;20194;-83
2022/05/22 09:33:43;;;;;;;4.95;1.88;;;22.40;89.20;;;;;;4995554;28;20174;-82
2022/05/22 09:36:11;;;;;;;5.13;1.60;;;22.70;87.20;;;;;;4995646;28;20269;-81
2022/05/22 09:38:40;;;;;;;5.70;1.60;;;22.40;86.80;;;;;;4994473;28;20175;-81
2022/05/22 09:41:11;;;;;;;6.57;1.75;;;22.40;87.20;;;;;;4994946;28;20201;-82
2022/05/22 09:43:48;;;;;;;5.63;2.08;;;22.70;88.60;;;;;;4994697;28;20659;-83
2022/05/22 09:46:35;;;;;;;7.72;1.88;;;22.50;87.60;;;;;;4995843;28;20167;-83
2022/05/22 09:49:22;;;;;;;2.92;1.38;;;22.80;82.10;;;;;;4995092;28;20589;-83
2022/05/22 09:51:50;;;;;;;5.95;1.67;;;20.70;86.10;;;;;;4990562;28;20186;-84
2022/05/22 09:54:25;;;;;;;7.88;2.42;;;21.50;87.80;;;;;;4993819;28;20218;-83
2022/05/22 09:57:12;;;;;;;6.38;1.63;;;22.30;86.40;;;;;;4979740;28;20187;-82
2022/05/22 09:59:47;;;;;;;7.47;1.90;;;22.50;87.60;;;;;;4980674;28;20190;-83
2022/05/22 10:02:35;;;;;;;7.38;1.92;;;23.10;84.30;;;;;;4981279;28;20206;-84
2022/05/22 10:05:22;;;;;;;6.47;1.80;;;22.40;85.20;;;;;;4980522;28;20172;-81
2022/05/22 10:08:19;;;;;;;7.28;2.05;;;23.10;83.50;;;;;;4979771;28;20182;-86
2022/05/22 10:10:47;;;;;;;7.03;1.92;;;22.60;85.30;;;;;;4950708;28;20195;-85
2022/05/22 10:13:45;;;;;;;7.38;1.88;;;21.90;86.80;;;;;;4980161;28;20223;-83
2022/05/22 10:16:30;;;;;;;5.38;1.70;;;22.60;84.50;;;;;;4979832;28;20183;-84
2022/05/22 10:19:08;;;;;;;6.38;1.60;;;21.80;84.00;;;;;;4998962;28;20175;-83
2022/05/22 10:21:49;;;;;;;8.35;1.90;;;23.00;84.50;;;;;;4982731;28;20257;-81
2022/05/22 10:24:26;;;;;;;6.30;1.52;;;23.00;85.20;;;;;;5000642;28;20602;-84
2022/05/22 10:27:18;;;;;;;4.47;1.50;;;23.40;85.30;;;;;;5001053;28;20265;-83
2022/05/22 10:29:53;;;;;;;5.95;1.80;;;23.10;82.70;;;;;;5001602;28;20313;-79
2022/05/22 10:32:21;;;;;;;4.95;1.92;;;23.40;83.00;;;;;;5000676;28;20270;-78
2022/05/22 10:35:09;;;;;;;5.10;1.85;;;23.10;82.00;;;;;;5000482;28;20217;-83
2022/05/22 10:37:44;;;;;;;8.85;2.22;;;22.10;84.60;;;;;;5000988;28;20177;-84
2022/05/22 10:40:16;;;;;;;5.93;1.67;;;22.40;83.30;;;;;;5001305;28;20293;-83
2022/05/22 10:42:47;;;;;;;8.55;1.95;;;22.70;82.70;;;;;;5000307;28;20171;-83
2022/05/22 10:45:36;;;;;;;5.32;1.60;;;22.20;82.70;;;;;;5000783;28;20178;-84
2022/05/22 10:48:22;;;;;;;7.68;2.00;;;23.40;82.10;;;;;;5001391;28;20175;-85
2022/05/22 10:51:02;;;;;;;6.63;2.40;;;23.30;80.60;;;;;;5001731;28;20289;-84
2022/05/22 10:53:41;;;;;;;4.28;1.70;;;22.80;80.30;;;;;;5000289;28;20191;-83
2022/05/22 10:56:24;;;;;;;6.95;1.80;;;23.30;80.70;;;;;;5001987;28;20236;-83
2022/05/22 10:59:00;;;;;;;6.70;1.90;;;22.90;80.20;;;;;;5002042;28;20213;-83
2022/05/22 11:01:38;;;;;;;4.97;1.80;;;23.80;79.20;;;;;;5018315;28;20221;-83
2022/05/22 11:04:13;;;;;;;6.18;1.80;;;22.00;80.50;;;;;;5000755;28;20667;-82
2022/05/22 11:07:02;;;;;;;7.68;1.70;;;22.20;80.70;;;;;;5001323;28;20166;-82
2022/05/22 11:09:34;;;;;;;4.28;1.50;;;22.20;80.50;;;;;;5001468;28;20224;-82
2022/05/22 11:12:10;;;;;;;5.55;1.70;;;22.80;81.40;;;;;;5001375;28;20249;-81
2022/05/22 11:14:36;;;;;;;4.78;1.80;;;23.60;81.10;;;;;;5001932;28;20179;-81
2022/05/22 11:17:21;;;;;;;4.95;1.70;;;22.00;81.30;;;;;;5002983;28;20563;-82
2022/05/22 11:19:52;;;;;;;5.90;1.90;;;22.10;78.00;;;;;;5000030;28;20198;-82
2022/05/22 11:22:27;;;;;;;6.85;1.67;;;22.70;76.30;;;;;;4997949;28;20857;-81
2022/05/22 11:25:02;;;;;;;4.57;1.48;;;22.70;77.20;;;;;;4998734;28;20514;-80
2022/05/22 11:27:46;;;;;;;7.25;1.70;;;23.30;77.20;;;;;;4998333;28;20546;-81
2022/05/22 11:30:31;;;;;;;7.32;1.75;;;23.70;78.70;;;;;;4999198;28;20677;-82
2022/05/22 11:33:03;;;;;;;7.13;1.65;;;23.40;78.00;;;;;;4998690;28;20174;-81
2022/05/22 11:36:18;;;;;;;5.15;1.60;;;23.70;76.70;;;;;;4998858;28;20588;-80
2022/05/22 11:39:29;;;;;;;6.65;1.83;;;24.20;79.60;;;;;;4999003;28;20183;-82
2022/05/22 11:42:07;;;;;;;6.38;1.65;;;22.90;77.30;;;;;;4998571;28;20706;-81
2022/05/22 11:44:57;;;;;;;8.23;2.00;;;23.60;79.60;;;;;;4998668;28;20208;-82
2022/05/22 11:47:28;;;;;;;3.95;1.55;;;23.80;81.80;;;;;;4998431;28;20181;-82
2022/05/22 11:50:29;;;;;;;7.93;1.70;;;24.70;77.80;;;;;;4998380;28;20543;-83
2022/05/22 11:53:31;;;;;;;8.30;1.80;;;23.20;77.60;;;;;;4967167;28;20199;-83
2022/05/22 11:56:15;;;;;;;7.03;1.63;;;22.40;78.00;;;;;;4999223;28;20181;-84
2022/05/22 11:59:02;;;;;;;6.45;1.83;;;22.30;79.70;;;;;;4997991;28;20158;-83
2022/05/22 12:02:12;;;;;;;4.72;1.42;;;22.80;79.40;;;;;;4997718;28;20671;-82
2022/05/22 12:05:10;;;;;;;5.60;2.00;;;22.80;79.50;;;;;;4998217;28;20241;-84
2022/05/22 12:07:46;;;;;;;5.43;1.60;;;23.30;75.20;;;;;;4955388;28;20678;-85
2022/05/22 12:10:26;;;;;;;7.22;1.65;;;23.30;76.50;;;;;;4996751;28;20245;-85
2022/05/22 12:12:54;;;;;;;4.95;1.80;;;22.60;75.10;;;;;;5011960;28;20178;-86
2022/05/22 12:15:46;;;;;;;6.90;1.75;;;22.30;73.30;;;;;;4995268;28;20237;-82
2022/05/22 12:18:36;;;;;;;3.70;1.60;;;21.90;74.70;;;;;;4996274;28;20178;-85
2022/05/22 12:21:28;;;;;;;5.70;1.67;;;21.70;76.40;;;;;;4994439;28;20202;-83
2022/05/22 12:24:05;;;;;;;8.07;1.60;;;22.10;76.10;;;;;;4996217;28;20679;-84
2022/05/22 12:26:31;;;;;;;4.53;1.38;;;22.20;76.50;;;;;;4997393;28;20654;-85
2022/05/22 12:29:00;;;;;;;6.78;1.88;;;21.90;76.80;;;;;;4999988;28;20239;-83
2022/05/22 12:31:31;;;;;;;4.80;1.50;;;21.60;77.90;;;;;;4997277;28;20198;-85
2022/05/22 12:34:02;;;;;;;7.00;1.83;;;22.20;82.50;;;;;;4999341;28;20555;-85
2022/05/22 12:36:30;;;;;;;5.90;1.67;;;22.00;82.70;;;;;;5015766;28;20178;-85
2022/05/22 12:39:06;;;;;;;5.68;1.77;;;21.20;78.70;;;;;;4997376;28;20206;-86
2022/05/22 12:42:08;;;;;;;5.78;1.60;;;21.00;80.00;;;;;;4997402;28;20190;-84
2022/05/22 12:44:35;;;;;;;6.45;1.70;;;21.00;81.30;;;;;;4999025;28;20198;-84
2022/05/22 12:47:13;;;;;;;3.80;1.45;;;20.80;79.40;;;;;;4997103;28;20648;-84
2022/05/22 12:49:39;;;;;;;5.55;1.80;;;20.80;79.70;;;;;;4998289;28;20207;-84
2022/05/22 12:54:41;;;;;;;7.22;1.70;;;21.00;80.70;;;;;;5063570;28;21086;-87
2022/05/22 12:57:10;;;;;;;10.32;2.08;;;21.10;84.60;;;;;;5034548;28;20204;-84
2022/05/22 12:59:36;;;;;;;8.40;1.88;;;21.00;83.00;;;;;;5030511;28;20212;-84
2022/05/22 13:02:03;;;;;;;6.30;1.80;;;21.40;83.70;;;;;;5029986;28;20217;-85
2022/05/22 13:04:34;;;;;;;7.28;1.65;;;21.40;82.00;;;;;;5031322;28;20726;-82
2022/05/22 13:07:03;;;;;;;5.13;1.80;;;21.20;82.60;;;;;;5031506;28;20178;-83
2022/05/22 13:09:31;;;;;;;5.85;1.65;;;21.10;81.80;;;;;;5031841;28;20171;-84
2022/05/22 13:12:00;;;;;;;4.57;1.83;;;21.10;85.80;;;;;;5031124;28;20477;-85
2022/05/22 13:14:33;;;;;;;6.50;2.03;;;21.20;81.40;;;;;;5033135;28;20281;-84
2022/05/22 13:17:00;;;;;;;5.30;1.60;;;21.10;84.80;;;;;;5030577;28;20170;-83